Observations for GUIDONIA IT-AFB, Italy (LIRG)

LIRG 221255Z VRB01KT 5000 BR FEW010 SCT020 06/06 Q1003  
LIRG 221255Z VRB01KT 5000 BR FEW010 SCT020 06/06 Q1003 RMK OVC MON NE INVIS NC VIS MIN 5000 WHT
LIRG 221155Z 33005KT 3000 -DZ BR SCT008 SCT020 06/06 Q1003  
LIRG 221155Z 33005KT 3000 -DZ BR SCT008 SCT020 06/06 Q1003 RMK OVC MON NE INVISNC VIS MIN 3000 YLO
LIRG 221055Z 31007KT 3000 BR FEW008 BKN020 07/06 Q1003  
LIRG 221055Z 31007KT 3000 BR FEW008 BKN020 07/06 Q1003 RMK OVC BKN060 MON NE INVIS NC VIS MIN 3000 YLO
LIRG 220955Z 31003KT 5000 BR FEW002 BKN025 06/06 Q1003  
LIRG 220955Z 31003KT 5000 BR FEW002 BKN025 06/06 Q1003 RMK OVC BKN060 MON NE INVIS NC VIS MIN 5000 WHT
LIRG 220855Z 03009KT 5000 - RA BR BKN020 06/05 Q1003
LIRG 220855Z 03009KT 5000 - RA BR BKN020 06/05 Q1003 RMK OVC BKN060 MON NE INVIS NC VIS MIN 5000 WHT
LIRG 220755Z 35005KT 4000 -RA BR BKN020 06/06 Q1003 
LIRG 220755Z 35005KT 4000 -RA BR BKN020 06/06 Q1003 RMK OVC BKN060 MON NE INVISVIS MIN 4000 GRN
LIRG 220655Z 34003KT 9999 FEW002 BKN030 07/06 Q1003 
LIRG 220655Z 34003KT 9999 FEW002 BKN030 07/06 Q1003 RMK BKN MON NE CLD CIME NC VIS MIN 9999 BLU
LIRG 220555Z 32007KT 9999 BKN030 06/06 Q1003
LIRG 220555Z 32007KT 9999 BKN030 06/06 Q1003 RMK OVC BKN070 MON NE CLD CIME VISMIN 9999 BLU
LIRG 211755Z 28004KT 9999 -RA SCT020 BKN030 08/08 Q1009 
LIRG 211755Z 28004KT 9999 -RA SCT020 BKN030 08/08 Q1009 RMK OVC MON NE CLD CIMENC VIS MIN 9999 BLU
LIRG 211655Z 29003KT 9999 SCT030 BKN040 09/08 Q1009 
LIRG 211655Z 29003KT 9999 SCT030 BKN040 09/08 Q1009 RMK OVC MON NE CLD CIME NC VIS MIN 9999 BLU
LIRG 211555Z 03003KT 360V070 9999 SCT025 BKN040 09/07 Q1009 
LIRG 211555Z 03003KT 360V070 9999 SCT025 BKN040 09/07 Q1009 RMK OVC MON NE CLD CIME VIS MIN 9999 BLU
LIRG 211455Z 26004KT 9999 FEW014 SCT025 BKN040 10/08 Q1009  
LIRG 211455Z 26004KT 9999 FEW014 SCT025 BKN040 10/08 Q1009 RMK OVC MON NE GEN INC NC VIS MIN 9999 BLU
LIRG 211355Z 04004KT 9999 -DZ SCT020 BKN030 09/08 Q1010 
LIRG 211355Z 04004KT 9999 -DZ SCT020 BKN030 09/08 Q1010 RMK OVC MON NE GEN INC NC VIS MIN 9999 BLU
LIRG 211255Z 05004KT 9999 -DZ SCT020 BKN030 10/08 Q1010 
LIRG 211255Z 05004KT 9999 -DZ SCT020 BKN030 10/08 Q1010 RMK OVC MON NE GEN INC NC VIS MIN 9999 BLU